createdAt,value
2018-11-28T00:00:11.902Z,1.58
2018-11-28T00:02:40.212Z,1.58
2018-11-28T00:05:08.521Z,1.58
2018-11-28T00:07:36.843Z,1.59
2018-11-28T00:10:05.147Z,1.59
2018-11-28T00:12:33.470Z,1.63
2018-11-28T00:15:01.796Z,1.68
2018-11-28T00:17:30.126Z,1.71
2018-11-28T00:19:58.455Z,1.75
2018-11-28T00:22:26.781Z,1.76
2018-11-28T00:24:55.137Z,1.67
2018-11-28T00:27:23.467Z,1.64
2018-11-28T00:29:51.795Z,1.59
2018-11-28T00:32:20.128Z,1.54
2018-11-28T00:34:48.444Z,1.46
2018-11-28T00:37:16.773Z,1.41
2018-11-28T00:39:45.102Z,1.40
2018-11-28T00:42:13.463Z,1.34
2018-11-28T00:44:41.805Z,1.13
2018-11-28T00:47:10.148Z,0.96
2018-11-28T00:49:38.570Z,0.86
2018-11-28T00:52:06.898Z,0.80
2018-11-28T00:54:35.228Z,0.76
2018-11-28T00:57:03.553Z,0.76
2018-11-28T00:59:31.886Z,0.75
2018-11-28T01:02:00.216Z,0.74
2018-11-28T01:04:28.558Z,0.74
2018-11-28T01:06:56.870Z,0.76
2018-11-28T01:09:25.198Z,0.79
2018-11-28T01:11:53.521Z,0.82
2018-11-28T01:14:21.844Z,0.85
2018-11-28T01:16:50.167Z,0.91
2018-11-28T01:19:18.514Z,0.96
2018-11-28T01:21:46.837Z,0.98
2018-11-28T01:24:15.145Z,0.93
2018-11-28T01:26:43.495Z,0.89
2018-11-28T01:29:11.812Z,0.91
2018-11-28T01:31:40.130Z,0.98
2018-11-28T01:34:08.455Z,1.09
2018-11-28T01:36:36.773Z,1.20
2018-11-28T01:39:05.100Z,1.32
2018-11-28T01:41:33.437Z,1.45
2018-11-28T01:44:01.764Z,1.50
2018-11-28T01:46:30.096Z,1.48
2018-11-28T01:48:58.420Z,1.39
2018-11-28T01:51:26.748Z,1.34
2018-11-28T01:53:55.077Z,1.35
2018-11-28T01:56:23.400Z,1.30
2018-11-28T01:58:51.750Z,1.25
2018-11-28T02:01:20.098Z,1.20
2018-11-28T02:03:48.386Z,1.20
2018-11-28T02:06:16.703Z,1.26
2018-11-28T02:08:45.019Z,1.31
2018-11-28T02:11:13.346Z,1.31
2018-11-28T02:13:41.659Z,1.33
2018-11-28T02:16:09.972Z,1.36
2018-11-28T02:18:38.295Z,1.39
2018-11-28T02:21:06.609Z,1.43
2018-11-28T02:23:34.929Z,1.45
2018-11-28T02:26:03.248Z,1.47
2018-11-28T02:28:31.603Z,1.45
2018-11-28T02:30:59.933Z,1.42
2018-11-28T02:33:28.245Z,1.39
2018-11-28T02:35:56.559Z,1.39
2018-11-28T02:38:24.885Z,1.45
2018-11-28T02:40:53.199Z,1.49
2018-11-28T02:43:21.519Z,1.51
2018-11-28T02:45:49.842Z,1.53
2018-11-28T02:48:18.156Z,1.53
2018-11-28T02:50:46.481Z,1.59
2018-11-28T02:53:14.814Z,1.68
2018-11-28T02:55:43.139Z,1.72
2018-11-28T02:58:11.467Z,1.70
2018-11-28T03:00:39.794Z,1.62
2018-11-28T03:03:08.135Z,1.49
2018-11-28T03:05:36.476Z,1.31
2018-11-28T03:08:04.808Z,1.24
2018-11-28T03:10:33.128Z,1.24
2018-11-28T03:13:01.445Z,1.27
2018-11-28T03:15:29.771Z,1.33
2018-11-28T03:17:58.083Z,1.39
2018-11-28T03:20:26.403Z,1.44
2018-11-28T03:22:54.948Z,1.48
2018-11-28T03:25:23.296Z,1.50
2018-11-28T03:27:51.608Z,1.48
2018-11-28T03:30:19.945Z,1.45
2018-11-28T03:32:48.269Z,1.44
2018-11-28T03:35:16.603Z,1.44
2018-11-28T03:37:45.185Z,1.52
2018-11-28T03:40:13.512Z,1.61
2018-11-28T03:42:41.852Z,1.58
2018-11-28T03:45:10.182Z,1.53
2018-11-28T03:47:38.515Z,1.49
2018-11-28T03:50:06.841Z,1.52
2018-11-28T03:52:35.165Z,1.62
2018-11-28T03:55:03.504Z,1.70
2018-11-28T03:57:31.833Z,1.75
2018-11-28T04:00:00.159Z,1.83
2018-11-28T04:02:28.483Z,1.91
2018-11-28T04:04:56.807Z,1.98
2018-11-28T04:07:25.132Z,1.99
2018-11-28T04:09:53.485Z,2.00
2018-11-28T04:12:21.793Z,2.01
2018-11-28T04:14:50.124Z,1.93
2018-11-28T04:17:18.448Z,1.81
2018-11-28T04:19:46.777Z,1.77
2018-11-28T04:22:15.165Z,1.75
2018-11-28T04:24:43.480Z,1.70
2018-11-28T04:27:11.817Z,1.59
2018-11-28T04:29:40.144Z,1.45
2018-11-28T04:32:08.481Z,1.37
2018-11-28T04:34:36.814Z,1.31
2018-11-28T04:37:05.143Z,1.34
2018-11-28T04:39:33.475Z,1.35
2018-11-28T04:42:01.886Z,1.33
2018-11-28T04:44:30.199Z,1.26
2018-11-28T04:46:58.539Z,1.20
2018-11-28T04:49:26.867Z,1.14
2018-11-28T04:51:55.190Z,1.13
2018-11-28T04:54:23.514Z,1.20
2018-11-28T04:56:51.826Z,1.27
2018-11-28T04:59:20.141Z,1.31
2018-11-28T05:01:48.472Z,1.36
2018-11-28T05:04:16.797Z,1.41
2018-11-28T05:06:45.122Z,1.45
2018-11-28T05:09:13.452Z,1.47
2018-11-28T05:11:41.782Z,1.46
2018-11-28T05:14:10.100Z,1.43
2018-11-28T05:16:38.441Z,1.37
2018-11-28T05:19:06.786Z,1.24
2018-11-28T05:21:35.112Z,1.15
2018-11-28T05:24:03.705Z,1.11
2018-11-28T05:26:32.042Z,1.10
2018-11-28T05:29:00.354Z,1.15
2018-11-28T05:31:28.679Z,1.23
2018-11-28T05:33:57.159Z,1.33
2018-11-28T05:36:26.185Z,1.39
2018-11-28T05:38:54.713Z,1.45
2018-11-28T05:41:23.040Z,1.48
2018-11-28T05:43:51.352Z,1.48
2018-11-28T05:46:19.679Z,1.48
2018-11-28T05:48:47.999Z,1.45
2018-11-28T05:51:16.319Z,1.43
2018-11-28T05:53:44.668Z,1.40
2018-11-28T05:56:12.983Z,1.39
2018-11-28T05:58:41.294Z,1.37
2018-11-28T06:01:09.629Z,1.37
2018-11-28T06:03:37.953Z,1.35
2018-11-28T06:06:06.293Z,1.32
2018-11-28T06:08:34.621Z,1.25
2018-11-28T06:11:02.949Z,1.24
2018-11-28T06:13:31.287Z,1.25
2018-11-28T06:15:59.631Z,1.28
2018-11-28T06:18:27.951Z,1.31
2018-11-28T06:20:56.510Z,1.27
2018-11-28T06:23:24.660Z,1.24
2018-11-28T06:25:53.446Z,1.19
2018-11-28T06:28:21.785Z,1.12
2018-11-28T06:30:50.140Z,1.10
2018-11-28T06:33:18.476Z,1.05
2018-11-28T06:35:46.882Z,0.98
2018-11-28T06:38:15.219Z,0.94
2018-11-28T06:40:43.563Z,0.91
2018-11-28T06:43:11.909Z,0.92
2018-11-28T06:45:40.803Z,0.93
2018-11-28T06:48:09.161Z,0.92
2018-11-28T06:50:37.502Z,0.91
2018-11-28T06:53:06.126Z,0.89
2018-11-28T06:55:34.467Z,0.83
2018-11-28T06:58:02.802Z,0.75
2018-11-28T07:00:31.137Z,0.67
2018-11-28T07:02:59.467Z,0.61
2018-11-28T07:05:27.798Z,0.57
2018-11-28T07:07:56.424Z,0.50
2018-11-28T07:10:24.745Z,0.45
2018-11-28T07:12:53.129Z,0.41
2018-11-28T07:15:21.759Z,0.38
2018-11-28T07:17:50.101Z,0.40
2018-11-28T07:20:18.453Z,0.43
2018-11-28T07:22:47.050Z,0.44
2018-11-28T07:25:15.404Z,0.44
2018-11-28T07:27:45.332Z,0.43
2018-11-28T07:30:12.079Z,0.40
2018-11-28T07:32:40.739Z,0.38
2018-11-28T07:35:09.073Z,0.34
2018-11-28T07:37:37.490Z,0.34
2018-11-28T07:40:05.798Z,0.33
2018-11-28T07:42:34.170Z,0.36
2018-11-28T07:45:02.526Z,0.43
2018-11-28T07:47:30.905Z,0.53
2018-11-28T07:49:59.220Z,0.61
2018-11-28T07:52:27.545Z,0.73
2018-11-28T07:54:55.884Z,0.82
2018-11-28T07:57:24.269Z,0.90
2018-11-28T07:59:52.610Z,0.97
2018-11-28T08:02:21.202Z,1.02
2018-11-28T08:04:49.533Z,1.07
2018-11-28T08:07:17.899Z,1.08
2018-11-28T08:09:46.237Z,1.10
2018-11-28T08:12:14.578Z,1.12
2018-11-28T08:14:42.925Z,1.16
2018-11-28T08:17:11.261Z,1.19
2018-11-28T08:19:39.597Z,1.22
2018-11-28T08:22:07.942Z,1.25
2018-11-28T08:24:36.269Z,1.31
2018-11-28T08:27:04.609Z,1.37
2018-11-28T08:29:32.927Z,1.42
2018-11-28T08:32:01.310Z,1.46
2018-11-28T08:34:29.594Z,1.50
2018-11-28T08:36:57.938Z,1.53
2018-11-28T08:39:26.309Z,1.56
2018-11-28T08:41:54.690Z,1.60
2018-11-28T08:44:22.996Z,1.63
2018-11-28T08:46:51.346Z,1.71
2018-11-28T08:49:19.672Z,1.82
2018-11-28T08:51:48.013Z,1.90
2018-11-28T08:54:16.365Z,1.98
2018-11-28T08:56:44.721Z,2.06
2018-11-28T08:59:13.043Z,2.12
2018-11-28T09:01:41.370Z,2.17
2018-11-28T09:04:09.706Z,2.21
2018-11-28T09:06:38.041Z,2.24
2018-11-28T09:09:06.370Z,2.26
2018-11-28T09:11:34.740Z,2.28
2018-11-28T09:14:04.688Z,2.30
2018-11-28T09:16:31.431Z,2.32
2018-11-28T09:18:59.763Z,2.32
2018-11-28T09:21:28.091Z,2.35
2018-11-28T09:23:56.421Z,2.37
2018-11-28T09:26:24.753Z,2.41
2018-11-28T09:28:53.134Z,2.45
2018-11-28T09:31:21.462Z,2.49
2018-11-28T09:33:49.815Z,2.53
2018-11-28T09:36:18.436Z,2.57
2018-11-28T09:38:47.069Z,2.61
2018-11-28T09:41:15.433Z,2.66
2018-11-28T09:43:43.775Z,2.69
2018-11-28T09:46:12.092Z,2.73
2018-11-28T09:48:40.427Z,2.77
2018-11-28T09:51:08.758Z,2.84
2018-11-28T09:53:37.086Z,2.90
2018-11-28T09:56:05.410Z,2.99
2018-11-28T09:58:33.756Z,3.08
2018-11-28T10:01:02.092Z,3.13
2018-11-28T10:03:30.424Z,3.19
2018-11-28T10:05:58.743Z,3.28
2018-11-28T10:08:27.071Z,3.35
2018-11-28T10:10:55.384Z,3.41
2018-11-28T10:13:23.707Z,3.47
2018-11-28T10:15:52.025Z,3.50
2018-11-28T10:18:20.432Z,3.54
2018-11-28T10:20:48.756Z,3.58
2018-11-28T10:23:17.087Z,3.63
2018-11-28T10:25:45.420Z,3.68
2018-11-28T10:28:13.747Z,3.73
2018-11-28T10:30:42.396Z,3.77
2018-11-28T10:33:10.716Z,3.78
2018-11-28T10:35:39.035Z,3.80
2018-11-28T10:38:07.369Z,3.81
2018-11-28T10:40:35.692Z,3.82
2018-11-28T10:43:04.053Z,3.84
2018-11-28T10:45:32.375Z,3.87
2018-11-28T10:48:00.691Z,3.88
2018-11-28T10:50:29.167Z,3.89
2018-11-28T10:52:57.481Z,3.91
2018-11-28T10:55:25.824Z,4.00
2018-11-28T10:57:54.142Z,4.05
2018-11-28T11:00:22.570Z,4.08
2018-11-28T11:02:50.895Z,4.12
2018-11-28T11:05:19.229Z,4.17
2018-11-28T11:07:50.489Z,4.23
2018-11-28T11:10:23.724Z,4.29
2018-11-28T11:12:52.050Z,4.35
2018-11-28T11:15:20.367Z,4.40
2018-11-28T11:17:48.704Z,4.47
2018-11-28T11:20:17.021Z,4.56
2018-11-28T11:22:45.347Z,4.67
2018-11-28T11:25:13.660Z,4.79
2018-11-28T11:27:41.996Z,4.94
2018-11-28T11:30:10.318Z,5.08
2018-11-28T11:32:38.661Z,5.21
2018-11-28T11:35:06.998Z,5.38
2018-11-28T11:37:35.303Z,5.56
2018-11-28T11:40:03.638Z,5.71
2018-11-28T11:42:31.988Z,5.86
2018-11-28T11:45:00.361Z,5.95
2018-11-28T11:47:28.692Z,6.08
2018-11-28T11:49:57.849Z,6.22
2018-11-28T11:52:26.433Z,6.40
2018-11-28T11:54:55.652Z,6.45
2018-11-28T11:57:23.983Z,6.51
2018-11-28T11:59:52.319Z,6.61
2018-11-28T12:02:20.672Z,6.69
2018-11-28T12:04:48.985Z,6.77
2018-11-28T12:07:17.335Z,6.85
2018-11-28T12:09:45.650Z,6.96
2018-11-28T12:12:13.984Z,7.11
2018-11-28T12:14:42.353Z,7.32
2018-11-28T12:17:10.666Z,7.49
2018-11-28T12:19:38.997Z,7.60
2018-11-28T12:22:07.315Z,7.73
2018-11-28T12:24:35.634Z,7.84
2018-11-28T12:27:03.974Z,7.86
2018-11-28T12:29:32.311Z,7.82
2018-11-28T12:32:00.642Z,7.84
2018-11-28T12:34:28.973Z,7.85
2018-11-28T12:36:57.306Z,7.92
2018-11-28T12:39:25.624Z,7.93
2018-11-28T12:41:54.920Z,7.95
2018-11-28T12:44:23.557Z,8.00
2018-11-28T12:46:51.947Z,8.07
2018-11-28T12:49:20.267Z,8.02
2018-11-28T12:51:49.096Z,8.00
2018-11-28T12:54:17.418Z,7.97
2018-11-28T12:56:45.739Z,7.97
2018-11-28T12:59:14.072Z,7.98
2018-11-28T13:01:42.701Z,7.93
2018-11-28T13:04:11.037Z,7.91
2018-11-28T13:06:39.371Z,7.96
2018-11-28T13:09:07.717Z,7.92
2018-11-28T13:11:36.055Z,7.94
2018-11-28T13:14:04.395Z,7.94
2018-11-28T13:16:32.734Z,8.01
2018-11-28T13:19:01.075Z,7.98
2018-11-28T13:21:29.408Z,7.95
2018-11-28T13:23:57.743Z,7.98
2018-11-28T13:26:26.073Z,8.06
2018-11-28T13:28:54.406Z,8.08
2018-11-28T13:31:22.734Z,7.93
2018-11-28T13:33:51.062Z,7.81
2018-11-28T13:36:22.648Z,7.69
2018-11-28T13:38:48.586Z,7.51
2018-11-28T13:41:16.078Z,7.42
2018-11-28T13:43:44.419Z,7.16
2018-11-28T13:46:12.756Z,6.83
2018-11-28T13:48:41.101Z,6.52
2018-11-28T13:51:09.443Z,6.20
2018-11-28T13:53:37.776Z,6.00
2018-11-28T13:58:34.455Z,5.49
2018-11-28T14:01:02.827Z,5.28
2018-11-28T14:03:31.164Z,5.11
2018-11-28T14:05:59.534Z,4.98
2018-11-28T14:08:27.881Z,4.80
2018-11-28T14:10:56.214Z,4.65
2018-11-28T14:13:24.553Z,4.53
2018-11-28T14:15:52.913Z,4.45
2018-11-28T14:18:21.281Z,4.37
2018-11-28T14:20:49.615Z,4.24
2018-11-28T14:23:17.949Z,4.11
2018-11-28T14:25:46.290Z,4.00
2018-11-28T14:28:14.620Z,3.94
2018-11-28T14:30:42.951Z,3.89
2018-11-28T14:33:11.310Z,3.79
2018-11-28T14:35:39.649Z,3.70
2018-11-28T14:38:07.988Z,3.57
2018-11-28T14:40:36.327Z,3.44
2018-11-28T14:43:04.662Z,3.37
2018-11-28T14:45:33.017Z,3.33
2018-11-28T14:48:01.339Z,3.30
2018-11-28T14:50:29.763Z,3.25
2018-11-28T14:52:58.106Z,3.18
2018-11-28T14:55:26.431Z,3.12
2018-11-28T14:57:54.767Z,3.08
2018-11-28T15:00:23.113Z,3.03
2018-11-28T15:02:51.463Z,2.95
2018-11-28T15:05:19.827Z,2.89
2018-11-28T15:07:48.159Z,2.82
2018-11-28T15:10:16.496Z,2.74
2018-11-28T15:12:45.188Z,2.69
2018-11-28T15:15:15.105Z,2.62
2018-11-28T15:17:43.435Z,2.55
2018-11-28T15:20:11.838Z,2.48
2018-11-28T15:22:40.134Z,2.40
2018-11-28T15:25:08.476Z,2.33
2018-11-28T15:27:36.806Z,2.26
2018-11-28T15:30:05.156Z,2.16
2018-11-28T15:32:33.476Z,2.08
2018-11-28T15:35:01.826Z,2.02
2018-11-28T15:37:30.164Z,1.98
2018-11-28T15:39:58.691Z,1.95
2018-11-28T15:42:27.037Z,1.89
2018-11-28T15:44:55.387Z,1.85
2018-11-28T15:47:23.738Z,1.81
2018-11-28T15:49:52.078Z,1.76
2018-11-28T15:52:20.433Z,1.72
2018-11-28T15:54:48.785Z,1.67
2018-11-28T15:57:17.127Z,1.65
2018-11-28T15:59:45.464Z,1.62
2018-11-28T16:02:13.810Z,1.56
2018-11-28T16:04:42.172Z,1.51
2018-11-28T16:07:10.506Z,1.47
2018-11-28T16:09:39.238Z,1.42
2018-11-28T16:12:07.578Z,1.39
2018-11-28T16:14:36.219Z,1.34
2018-11-28T16:17:04.567Z,1.27
2018-11-28T16:19:32.902Z,1.25
2018-11-28T16:22:01.252Z,1.21
2018-11-28T16:24:29.829Z,1.18
2018-11-28T16:26:57.914Z,1.12
2018-11-28T16:29:26.256Z,1.08
2018-11-28T16:31:54.604Z,1.03
2018-11-28T16:34:22.954Z,1.00
2018-11-28T16:36:51.297Z,0.97
2018-11-28T16:39:19.922Z,0.92
2018-11-28T16:41:48.262Z,0.87
2018-11-28T16:44:16.609Z,0.83
2018-11-28T16:46:44.944Z,0.81
2018-11-28T16:49:13.304Z,0.79
2018-11-28T16:51:41.650Z,0.76
2018-11-28T16:54:10.006Z,0.73
2018-11-28T16:56:38.559Z,0.74
2018-11-28T16:59:06.963Z,0.73
2018-11-28T17:01:35.325Z,0.72
2018-11-28T17:04:03.660Z,0.71
2018-11-28T17:06:32.006Z,0.68
2018-11-28T17:09:04.696Z,0.61
2018-11-28T17:11:33.657Z,0.59
2018-11-28T17:14:02.005Z,0.55
2018-11-28T17:16:31.084Z,0.52
2018-11-28T17:18:59.442Z,0.48
2018-11-28T17:21:27.830Z,0.46
2018-11-28T17:23:56.216Z,0.46
2018-11-28T17:26:24.582Z,0.43
2018-11-28T17:28:52.904Z,0.42
2018-11-28T17:31:21.316Z,0.40
2018-11-28T17:33:49.623Z,0.37
2018-11-28T17:36:18.031Z,0.36
2018-11-28T17:38:46.413Z,0.32
2018-11-28T17:41:14.974Z,0.27
2018-11-28T17:43:43.097Z,0.24
2018-11-28T17:46:11.449Z,0.21
2018-11-28T17:48:40.018Z,0.20
2018-11-28T17:51:08.153Z,0.17
2018-11-28T17:53:36.531Z,0.16
2018-11-28T17:56:05.290Z,0.14
2018-11-28T17:58:33.702Z,0.12
2018-11-28T18:01:02.060Z,0.10
2018-11-28T18:03:30.407Z,0.06
2018-11-28T18:05:58.760Z,0.03
2018-11-28T18:08:27.148Z,-0.03
2018-11-28T18:10:55.503Z,-0.05
2018-11-28T18:13:23.966Z,-0.08
2018-11-28T18:15:52.320Z,-0.13
2018-11-28T18:18:20.691Z,-0.17
2018-11-28T18:20:50.371Z,-0.21
2018-11-28T18:23:17.634Z,-0.22
2018-11-28T18:25:45.979Z,-0.26
2018-11-28T18:28:14.613Z,-0.29
2018-11-28T18:30:43.025Z,-0.35
2018-11-28T18:33:11.389Z,-0.40
2018-11-28T18:35:39.724Z,-0.43
2018-11-28T18:38:08.061Z,-0.48
2018-11-28T18:40:36.413Z,-0.49
2018-11-28T18:43:05.105Z,-0.49
2018-11-28T18:45:33.446Z,-0.51
2018-11-28T18:48:01.811Z,-0.53
2018-11-28T18:50:30.180Z,-0.60
2018-11-28T18:52:58.535Z,-0.70
2018-11-28T18:55:26.913Z,-0.77
2018-11-28T18:57:55.282Z,-0.82
2018-11-28T19:00:23.660Z,-0.84
2018-11-28T19:02:52.002Z,-0.90
2018-11-28T19:05:20.353Z,-0.99
2018-11-28T19:07:48.688Z,-1.05
2018-11-28T19:10:17.037Z,-1.08
2018-11-28T19:12:45.382Z,-1.11
2018-11-28T19:15:13.724Z,-1.15
2018-11-28T19:17:42.063Z,-1.17
2018-11-28T19:20:10.413Z,-1.14
2018-11-28T19:22:38.741Z,-1.10
2018-11-28T19:25:07.105Z,-1.03
2018-11-28T19:27:35.437Z,-0.96
2018-11-28T19:30:03.804Z,-0.86
2018-11-28T19:32:32.155Z,-0.76
2018-11-28T19:35:00.518Z,-0.69
2018-11-28T19:37:28.855Z,-0.60
2018-11-28T19:39:57.183Z,-0.53
2018-11-28T19:42:25.532Z,-0.43
2018-11-28T19:44:53.883Z,-0.35
2018-11-28T19:47:22.299Z,-0.29
2018-11-28T19:49:50.642Z,-0.21
2018-11-28T19:52:19.066Z,-0.15
2018-11-28T19:54:47.427Z,-0.13
2018-11-28T19:57:15.776Z,-0.10
2018-11-28T19:59:44.861Z,-0.09
2018-11-28T20:02:13.333Z,-0.04
2018-11-28T20:04:41.646Z,-0.06
2018-11-28T20:07:09.996Z,-0.09
2018-11-28T20:09:38.353Z,-0.09
2018-11-28T20:12:06.734Z,-0.08
2018-11-28T20:14:35.156Z,-0.01
2018-11-28T20:17:03.470Z,0.04
2018-11-28T20:19:31.804Z,0.06
2018-11-28T20:22:01.179Z,0.06
2018-11-28T20:24:29.524Z,0.11
2018-11-28T20:26:57.871Z,0.15
2018-11-28T20:29:26.209Z,0.19
2018-11-28T20:31:54.593Z,0.20
2018-11-28T20:34:23.039Z,0.23
2018-11-28T20:36:51.374Z,0.23
2018-11-28T20:39:19.710Z,0.23
2018-11-28T20:41:48.093Z,0.22
2018-11-28T20:44:16.444Z,0.18
2018-11-28T20:46:44.811Z,0.15
2018-11-28T20:49:13.135Z,0.15
2018-11-28T20:51:41.462Z,0.15
2018-11-28T20:54:09.791Z,0.14
2018-11-28T20:56:38.130Z,0.09
2018-11-28T20:59:06.473Z,0.06
2018-11-28T21:01:34.817Z,0.03
2018-11-28T21:04:03.159Z,0.01
2018-11-28T21:06:31.494Z,0.02
2018-11-28T21:08:59.846Z,0.03
2018-11-28T21:11:28.178Z,0.04
2018-11-28T21:13:56.513Z,0.05
2018-11-28T21:16:24.882Z,0.04
2018-11-28T21:18:53.208Z,0.00
2018-11-28T21:21:21.557Z,-0.02
2018-11-28T21:23:49.920Z,-0.05
2018-11-28T21:26:18.298Z,-0.10
2018-11-28T21:28:46.682Z,-0.13
2018-11-28T21:31:15.168Z,-0.15
2018-11-28T21:33:43.516Z,-0.16
2018-11-28T21:36:12.079Z,-0.16
2018-11-28T21:38:40.196Z,-0.16
2018-11-28T21:41:08.534Z,-0.19
2018-11-28T21:43:36.888Z,-0.22
2018-11-28T21:46:05.217Z,-0.21
2018-11-28T21:48:33.567Z,-0.24
2018-11-28T21:51:01.935Z,-0.28
2018-11-28T21:53:30.357Z,-0.31
2018-11-28T21:55:58.692Z,-0.31
2018-11-28T21:58:28.457Z,-0.32
2018-11-28T22:00:55.449Z,-0.32
2018-11-28T22:03:24.266Z,-0.33
2018-11-28T22:05:52.600Z,-0.36
2018-11-28T22:08:21.573Z,-0.38
2018-11-28T22:10:49.902Z,-0.40
2018-11-28T22:13:18.249Z,-0.41
2018-11-28T22:15:46.566Z,-0.45
2018-11-28T22:18:14.992Z,-0.46
2018-11-28T22:20:43.311Z,-0.44
2018-11-28T22:23:11.664Z,-0.43
2018-11-28T22:25:39.998Z,-0.42
2018-11-28T22:28:08.559Z,-0.42
2018-11-28T22:30:36.676Z,-0.41
2018-11-28T22:33:05.006Z,-0.37
2018-11-28T22:35:33.351Z,-0.35
2018-11-28T22:38:01.685Z,-0.38
2018-11-28T22:40:30.022Z,-0.35
2018-11-28T22:42:58.363Z,-0.28
2018-11-28T22:45:26.697Z,-0.20
2018-11-28T22:47:55.034Z,-0.15
2018-11-28T22:50:23.373Z,-0.13
2018-11-28T22:52:51.711Z,-0.11
2018-11-28T22:55:20.056Z,-0.12
2018-11-28T22:57:48.388Z,-0.11
2018-11-28T23:00:16.868Z,-0.10
2018-11-28T23:02:45.190Z,-0.10
2018-11-28T23:05:13.417Z,-0.10
2018-11-28T23:07:43.023Z,-0.06
2018-11-28T23:10:11.374Z,-0.03
2018-11-28T23:12:39.731Z,0.00
2018-11-28T23:15:08.064Z,0.03
2018-11-28T23:17:36.400Z,-0.01
2018-11-28T23:20:04.721Z,0.01
2018-11-28T23:22:33.054Z,0.00
2018-11-28T23:25:01.395Z,0.02
2018-11-28T23:27:29.715Z,0.02
2018-11-28T23:29:58.043Z,0.00
2018-11-28T23:32:26.360Z,0.02
2018-11-28T23:34:54.690Z,-0.02
2018-11-28T23:37:23.016Z,-0.06
2018-11-28T23:39:51.364Z,-0.09
2018-11-28T23:42:19.692Z,-0.10
2018-11-28T23:44:48.027Z,-0.07
2018-11-28T23:47:16.374Z,-0.04
2018-11-28T23:49:44.708Z,-0.04
2018-11-28T23:52:13.055Z,-0.09
2018-11-28T23:54:41.397Z,-0.13
2018-11-28T23:57:09.729Z,-0.11
2018-11-28T23:59:38.070Z,-0.06
